createdAt,value
2017-03-09T00:00:37.747Z,89.74
2017-03-09T00:03:02.094Z,88.69
2017-03-09T00:05:25.389Z,89.26
2017-03-09T00:07:48.680Z,88.21
2017-03-09T00:10:12.078Z,89.07
2017-03-09T00:14:11.759Z,89.36
2017-03-09T00:16:35.274Z,89.07
2017-03-09T00:18:58.601Z,88.78
2017-03-09T00:23:07.687Z,89.83
2017-03-09T00:25:32.754Z,89.93
2017-03-09T00:27:56.194Z,89.17
2017-03-09T00:30:19.581Z,90.08
2017-03-09T00:32:42.919Z,89.74
2017-03-09T00:35:06.224Z,89.26
2017-03-09T00:37:21.156Z,88.78
2017-03-09T00:39:44.456Z,88.4
2017-03-09T00:42:07.776Z,88.59
2017-03-09T00:44:31.125Z,90.17
2017-03-09T00:46:54.538Z,90.31
2017-03-09T00:49:18.046Z,90.55
2017-03-09T00:51:41.381Z,89.83
2017-03-09T00:54:04.773Z,90.17
2017-03-09T00:56:27.976Z,90.12
2017-03-09T00:58:51.274Z,90.12
2017-03-09T01:01:14.606Z,90.36
2017-03-09T01:03:37.892Z,89.93
2017-03-09T01:06:01.195Z,89.45
2017-03-09T01:08:24.535Z,89.64
2017-03-09T01:10:47.828Z,89.54
2017-03-09T01:13:11.113Z,88.88
2017-03-09T01:15:34.395Z,89.74
2017-03-09T01:17:57.701Z,90.69
2017-03-09T01:20:20.988Z,89.45
2017-03-09T01:22:44.316Z,89.26
2017-03-09T01:25:07.565Z,89.74
2017-03-09T01:27:30.907Z,89.26
2017-03-09T01:29:54.218Z,89.74
2017-03-09T01:32:17.488Z,89.36
2017-03-09T01:34:40.797Z,89.26
2017-03-09T01:37:04.133Z,90.22
2017-03-09T01:39:27.456Z,89.54
2017-03-09T01:41:50.775Z,89.93
2017-03-09T01:44:14.082Z,91.07
2017-03-09T01:46:06.843Z,90.59
2017-03-09T01:48:30.202Z,90.88
2017-03-09T01:50:53.470Z,90.59
2017-03-09T01:53:16.733Z,90.59
2017-03-09T01:57:07.389Z,90.79
2017-03-09T01:59:30.725Z,91.27
2017-03-09T02:01:54.061Z,90.12
2017-03-09T02:04:17.392Z,90.12
2017-03-09T02:06:40.703Z,90.03
2017-03-09T02:08:50.853Z,89.83
2017-03-09T02:11:14.199Z,90.12
2017-03-09T02:13:37.521Z,89.83
2017-03-09T02:16:00.822Z,90.79
2017-03-09T02:18:24.146Z,90.12
2017-03-09T02:20:47.430Z,89.54
2017-03-09T02:23:10.809Z,91.36
2017-03-09T02:25:03.577Z,91.07
2017-03-09T02:27:26.939Z,90.03
2017-03-09T02:29:50.282Z,90.5
2017-03-09T02:31:51.394Z,90.59
2017-03-09T02:34:14.761Z,90.03
2017-03-09T02:36:38.024Z,89.88
2017-03-09T02:39:01.237Z,88.64
2017-03-09T02:41:24.514Z,89.93
2017-03-09T02:43:47.842Z,89.12
2017-03-09T02:46:02.759Z,88.92
2017-03-09T02:48:26.091Z,89.64
2017-03-09T02:50:49.478Z,90.12
2017-03-09T02:53:12.800Z,89.83
2017-03-09T02:55:36.179Z,88.54
2017-03-09T02:57:51.132Z,89.4
2017-03-09T02:59:52.777Z,89.97
2017-03-09T03:02:16.158Z,89.88
2017-03-09T03:04:39.494Z,89.5
2017-03-09T03:07:02.795Z,89.21
2017-03-09T03:09:26.151Z,89.64
2017-03-09T03:11:49.515Z,90.69
2017-03-09T03:14:12.822Z,91.17
2017-03-09T03:16:36.168Z,91.46
2017-03-09T03:18:59.522Z,91.36
2017-03-09T03:21:22.863Z,91.83
2017-03-09T03:23:37.798Z,90.98
2017-03-09T03:26:01.132Z,90.26
2017-03-09T03:28:25.094Z,89.12
2017-03-09T03:30:48.455Z,89.12
2017-03-09T03:33:03.406Z,89.88
2017-03-09T03:35:26.745Z,89.12
2017-03-09T03:37:41.673Z,90.07
2017-03-09T03:40:05.019Z,89.5
2017-03-09T03:42:19.981Z,89.12
2017-03-09T03:44:43.315Z,89.5
2017-03-09T03:46:45.005Z,89.5
2017-03-09T03:49:09.391Z,89.12
2017-03-09T03:51:32.739Z,89.5
2017-03-09T03:53:56.093Z,90.59
2017-03-09T03:56:11.048Z,90.36
2017-03-09T03:58:34.386Z,90.12
2017-03-09T04:00:57.714Z,89.59
2017-03-09T04:03:21.072Z,90.17
2017-03-09T04:05:44.390Z,89.69
2017-03-09T04:08:07.653Z,90.17
2017-03-09T04:10:30.980Z,88.83
2017-03-09T04:12:54.324Z,89.4
2017-03-09T04:15:17.673Z,90.31
2017-03-09T04:17:41.042Z,89.97
2017-03-09T04:20:04.382Z,90.26
2017-03-09T04:22:27.756Z,90.64
2017-03-09T04:24:37.434Z,89.78
2017-03-09T04:26:30.767Z,90.17
2017-03-09T04:28:54.156Z,90.31
2017-03-09T04:31:17.507Z,91.27
2017-03-09T04:33:32.455Z,90.55
2017-03-09T04:35:55.835Z,90.55
2017-03-09T04:38:19.196Z,90.36
2017-03-09T04:40:42.535Z,90.07
2017-03-09T04:43:05.911Z,90.55
2017-03-09T04:45:20.855Z,90.26
2017-03-09T04:47:44.212Z,91.21
2017-03-09T04:50:07.499Z,90.26
2017-03-09T04:52:30.858Z,90.73
2017-03-09T04:56:29.975Z,91.12
2017-03-09T04:58:44.938Z,91.12
2017-03-09T05:01:08.287Z,90.26
2017-03-09T05:03:31.647Z,90.45
2017-03-09T05:07:30.744Z,90.26
2017-03-09T05:09:40.862Z,89.69
2017-03-09T05:12:04.258Z,91.02
2017-03-09T05:14:27.569Z,91.21
2017-03-09T05:16:50.928Z,91.74
2017-03-09T05:19:14.260Z,91.41
2017-03-09T05:21:37.594Z,89.88
2017-03-09T05:23:52.495Z,90.93
2017-03-09T05:26:15.800Z,90.36
2017-03-09T05:28:39.184Z,89.06
2017-03-09T05:31:02.481Z,89.12
2017-03-09T05:32:55.237Z,89.88
2017-03-09T05:36:54.333Z,89.88
2017-03-09T05:39:17.708Z,89.97
2017-03-09T05:41:32.661Z,90.93
2017-03-09T05:43:56.028Z,91.5
2017-03-09T05:46:19.366Z,91.78
2017-03-09T05:48:42.711Z,91.98
2017-03-09T05:50:52.371Z,92.88
2017-03-09T05:53:15.729Z,92.98
2017-03-09T05:55:39.071Z,92.55
2017-03-09T05:58:02.453Z,92.88
2017-03-09T06:00:09.020Z,92.07
2017-03-09T06:02:32.382Z,92.36
2017-03-09T06:04:55.750Z,93.31
2017-03-09T06:07:19.017Z,92.55
2017-03-09T06:09:42.365Z,91.78
2017-03-09T06:12:05.696Z,92.46
2017-03-09T06:14:28.975Z,91.31
2017-03-09T06:18:28.607Z,91.31
2017-03-09T06:20:43.582Z,91.21
2017-03-09T06:23:06.951Z,91.41
2017-03-09T06:25:30.543Z,90.93
2017-03-09T06:27:53.764Z,90.45
2017-03-09T06:30:17.079Z,91.5
2017-03-09T06:32:40.530Z,91.02
2017-03-09T06:35:03.869Z,90.02
2017-03-09T06:37:27.145Z,90.83
2017-03-09T06:39:28.292Z,91.31
2017-03-09T06:41:51.688Z,91.41
2017-03-09T06:44:15.080Z,91.31
2017-03-09T06:46:30.063Z,90.93
2017-03-09T06:48:53.442Z,90.55
2017-03-09T06:51:16.985Z,90.78
2017-03-09T06:53:40.224Z,90.02
2017-03-09T06:56:03.604Z,91.21
2017-03-09T06:58:26.873Z,91.6
2017-03-09T07:00:50.168Z,92.26
2017-03-09T07:03:13.539Z,91.02
2017-03-09T07:05:36.862Z,89.35
2017-03-09T07:08:00.225Z,89.06
2017-03-09T07:10:23.574Z,90.83
2017-03-09T07:12:38.543Z,90.73
2017-03-09T07:15:01.960Z,90.88
2017-03-09T07:17:25.383Z,89.92
2017-03-09T07:19:48.735Z,90.4
2017-03-09T07:22:03.778Z,91.21
2017-03-09T07:24:27.116Z,90.5
2017-03-09T07:26:50.492Z,90.78
2017-03-09T07:28:51.614Z,90.97
2017-03-09T07:32:50.781Z,89.35
2017-03-09T07:35:14.210Z,90.69
2017-03-09T07:39:13.397Z,90.55
2017-03-09T07:41:36.816Z,90.55
2017-03-09T07:44:00.218Z,90.21
2017-03-09T07:46:23.598Z,90.93
2017-03-09T07:48:46.994Z,90.45
2017-03-09T07:51:10.378Z,90.83
2017-03-09T07:53:33.789Z,90.69
2017-03-09T07:55:57.200Z,90.64
2017-03-09T07:58:20.611Z,90.55
2017-03-09T08:00:43.995Z,90.64
2017-03-09T08:03:07.402Z,91.31
2017-03-09T08:05:30.708Z,90.78
2017-03-09T08:07:54.062Z,90.31
2017-03-09T08:10:04.202Z,90.69
2017-03-09T08:12:27.579Z,91.5
2017-03-09T08:14:50.962Z,90.31
2017-03-09T08:17:14.347Z,90.02
2017-03-09T08:19:37.834Z,89.45
2017-03-09T08:22:01.210Z,90.02
2017-03-09T08:24:24.611Z,90.02
2017-03-09T08:26:47.971Z,90.4
2017-03-09T08:29:11.486Z,90.78
2017-03-09T08:31:34.827Z,90.97
2017-03-09T08:33:58.155Z,90.69
2017-03-09T08:36:21.588Z,90.21
2017-03-09T08:41:56.845Z,88.68
2017-03-09T08:44:20.310Z,89.64
2017-03-09T08:46:43.723Z,90.21
2017-03-09T08:48:58.720Z,90.59
2017-03-09T08:51:22.103Z,90.64
2017-03-09T08:55:22.530Z,90.21
2017-03-09T08:57:45.955Z,90.02
2017-03-09T09:00:09.347Z,89.54
2017-03-09T09:02:32.724Z,89.92
2017-03-09T09:04:56.107Z,89.54
2017-03-09T09:07:11.107Z,89.54
2017-03-09T09:09:34.515Z,88.34
2017-03-09T09:11:57.914Z,88.34
2017-03-09T09:15:58.397Z,87.68
2017-03-09T09:18:21.851Z,89.54
2017-03-09T09:20:45.869Z,90.02
2017-03-09T09:23:08.876Z,88.87
2017-03-09T09:25:32.319Z,88.06
2017-03-09T09:27:55.793Z,89.01
2017-03-09T09:30:19.336Z,89.25
2017-03-09T09:32:42.801Z,90.21
2017-03-09T09:35:06.210Z,89.16
2017-03-09T09:37:29.707Z,89.35
2017-03-09T09:39:53.249Z,88.44
2017-03-09T09:42:16.793Z,88.44
2017-03-09T09:44:40.303Z,88.06
2017-03-09T09:47:03.674Z,88.15
2017-03-09T09:49:27.231Z,87.96
2017-03-09T09:51:50.730Z,87.77
2017-03-09T09:54:16.024Z,86.76
2017-03-09T09:56:41.050Z,87.77
2017-03-09T09:59:04.542Z,87.87
2017-03-09T10:01:27.903Z,88.63
2017-03-09T10:03:51.428Z,88.82
2017-03-09T10:06:14.746Z,87.77
2017-03-09T10:08:38.244Z,87.48
2017-03-09T10:11:01.663Z,86.76
2017-03-09T10:13:25.046Z,87.24
2017-03-09T10:15:48.505Z,86.86
2017-03-09T10:18:11.949Z,87.01
2017-03-09T10:20:35.433Z,86.47
2017-03-09T10:22:50.457Z,86.38
2017-03-09T10:25:14.010Z,85.47
2017-03-09T10:27:37.501Z,85.81
2017-03-09T10:30:00.988Z,85.62
2017-03-09T10:32:24.552Z,85.47
2017-03-09T10:34:48.057Z,85.24
2017-03-09T10:37:11.581Z,84.99
2017-03-09T10:39:35.046Z,82.74
2017-03-09T10:41:58.569Z,82.83
2017-03-09T10:44:22.043Z,85.33
2017-03-09T10:46:45.518Z,84.89
2017-03-09T10:49:09.034Z,85.18
2017-03-09T10:51:32.522Z,85.09
2017-03-09T10:55:40.275Z,85.81
2017-03-09T10:58:03.783Z,85.52
2017-03-09T11:00:27.318Z,84.99
2017-03-09T11:02:50.790Z,86.38
2017-03-09T11:05:00.998Z,86.96
2017-03-09T11:07:24.536Z,85.94
2017-03-09T11:09:25.686Z,85.9
2017-03-09T11:11:49.161Z,87.53
2017-03-09T11:14:12.615Z,87.43
2017-03-09T11:16:36.042Z,87.43
2017-03-09T11:18:59.466Z,88.01
2017-03-09T11:21:22.935Z,87.72
2017-03-09T11:23:46.431Z,87.34
2017-03-09T11:26:09.872Z,87.43
2017-03-09T11:28:33.349Z,87.91
2017-03-09T11:30:56.817Z,86.76
2017-03-09T11:33:20.301Z,86.14
2017-03-09T11:35:43.812Z,85.85
2017-03-09T11:38:07.306Z,85.38
2017-03-09T11:40:30.801Z,85.28
2017-03-09T11:42:54.295Z,85.28
2017-03-09T11:45:17.805Z,86.67
2017-03-09T11:47:41.257Z,85.81
2017-03-09T11:50:04.778Z,85.28
2017-03-09T11:52:28.310Z,85.75
2017-03-09T11:54:51.759Z,85.38
2017-03-09T11:57:15.241Z,85.66
2017-03-09T12:01:14.532Z,85.47
2017-03-09T12:03:38.082Z,83.65
2017-03-09T12:06:01.612Z,83.84
2017-03-09T12:08:11.327Z,84.23
2017-03-09T12:10:34.883Z,83.69
2017-03-09T12:12:58.425Z,83.98
2017-03-09T12:15:21.935Z,84.13
2017-03-09T12:17:45.454Z,84.7
2017-03-09T12:20:08.967Z,84.61
2017-03-09T12:22:10.185Z,86.67
2017-03-09T12:24:33.749Z,86.67
2017-03-09T12:26:57.287Z,86.52
2017-03-09T12:29:20.825Z,85.57
2017-03-09T12:31:35.961Z,84.7
2017-03-09T12:35:35.719Z,85.47
2017-03-09T12:37:59.257Z,85.75
2017-03-09T12:40:14.376Z,86.8
2017-03-09T12:42:37.845Z,86.33
2017-03-09T12:45:01.357Z,87
2017-03-09T12:47:24.882Z,86.52
2017-03-09T12:49:48.390Z,86.61
2017-03-09T12:52:11.916Z,88.2
2017-03-09T12:54:27.012Z,87.53
2017-03-09T12:56:50.543Z,87.57
2017-03-09T12:59:14.025Z,87.09
2017-03-09T13:01:37.567Z,87.09
2017-03-09T13:04:01.104Z,87.62
2017-03-09T13:06:24.623Z,86.23
2017-03-09T13:08:48.148Z,86.52
2017-03-09T13:11:03.250Z,87.72
2017-03-09T13:13:12.985Z,88.01
2017-03-09T13:15:36.508Z,87.95
2017-03-09T13:18:00.020Z,87.82
2017-03-09T13:20:23.514Z,87.29
2017-03-09T13:22:47.033Z,87.29
2017-03-09T13:25:10.534Z,85.13
2017-03-09T13:27:34.025Z,84.65
2017-03-09T13:29:57.574Z,83.45
2017-03-09T13:32:21.131Z,82.2
2017-03-09T13:34:31.304Z,83.26
2017-03-09T13:36:54.874Z,83.64
2017-03-09T13:39:18.368Z,81.96
2017-03-09T13:41:41.938Z,82.87
2017-03-09T13:44:05.541Z,83.73
2017-03-09T13:46:29.181Z,82.73
2017-03-09T13:48:52.867Z,81.13
2017-03-09T13:51:16.514Z,79.8
2017-03-09T13:53:40.100Z,79.89
2017-03-09T13:56:03.784Z,78.2
2017-03-09T13:58:27.375Z,78.84
2017-03-09T14:00:51.007Z,78.84
2017-03-09T14:03:14.686Z,80.33
2017-03-09T14:05:38.319Z,79.8
2017-03-09T14:08:01.983Z,78.93
2017-03-09T14:10:25.625Z,79.51
2017-03-09T14:12:49.264Z,81.2
2017-03-09T14:15:12.998Z,81.86
2017-03-09T14:17:36.572Z,82.49
2017-03-09T14:20:00.261Z,82.97
2017-03-09T14:22:23.880Z,83.36
2017-03-09T14:24:47.427Z,82.53
2017-03-09T14:27:11.094Z,83.06
2017-03-09T14:29:35.527Z,83.54
2017-03-09T14:31:49.898Z,83.36
2017-03-09T14:34:13.512Z,83.01
2017-03-09T14:36:37.087Z,81.48
2017-03-09T14:39:00.700Z,82.24
2017-03-09T14:41:24.354Z,81.48
2017-03-09T14:43:47.933Z,81.29
2017-03-09T14:46:11.534Z,82.01
2017-03-09T14:48:35.100Z,82.01
2017-03-09T14:50:58.744Z,81.96
2017-03-09T14:53:22.269Z,81.82
2017-03-09T14:55:45.959Z,81.82
2017-03-09T14:57:56.111Z,80.81
2017-03-09T15:00:19.728Z,81.1
2017-03-09T15:02:43.294Z,81.82
2017-03-09T15:05:06.861Z,81.73
2017-03-09T15:07:30.446Z,81.82
2017-03-09T15:09:54.058Z,82.11
2017-03-09T15:12:17.633Z,81.2
2017-03-09T15:14:41.213Z,79.03
2017-03-09T15:17:04.829Z,79.51
2017-03-09T15:19:28.431Z,78.27
2017-03-09T15:21:52.098Z,80.77
2017-03-09T15:24:02.290Z,80.52
2017-03-09T15:26:26.035Z,81.29
2017-03-09T15:28:49.688Z,81.25
2017-03-09T15:31:13.311Z,82.68
2017-03-09T15:33:36.963Z,81.92
2017-03-09T15:37:36.296Z,81.54
2017-03-09T15:39:59.939Z,81.73
2017-03-09T15:42:23.545Z,82.4
2017-03-09T15:44:47.101Z,81.44
2017-03-09T15:47:10.645Z,82.83
2017-03-09T15:49:34.218Z,82.26
2017-03-09T15:51:57.783Z,82.78
2017-03-09T15:54:21.292Z,81.34
2017-03-09T15:56:44.900Z,80.38
2017-03-09T15:59:08.470Z,81.25
2017-03-09T16:01:32.082Z,81.78
2017-03-09T16:03:55.658Z,81.49
2017-03-09T16:06:10.832Z,81.54
2017-03-09T16:08:34.382Z,81.44
2017-03-09T16:10:57.940Z,81.97
2017-03-09T16:13:21.529Z,82.54
2017-03-09T16:15:45.126Z,82.35
2017-03-09T16:18:08.653Z,82.54
2017-03-09T16:20:32.110Z,82.64
2017-03-09T16:22:55.733Z,81.78
2017-03-09T16:25:19.223Z,81.78
2017-03-09T16:27:42.796Z,81.88
2017-03-09T16:30:06.315Z,81.59
2017-03-09T16:32:08.100Z,80.92
2017-03-09T16:34:31.694Z,80.67
2017-03-09T16:36:55.245Z,80.77
2017-03-09T16:39:18.810Z,80.73
2017-03-09T16:41:42.417Z,81.3
2017-03-09T16:44:06.009Z,81.4
2017-03-09T16:46:29.610Z,81.21
2017-03-09T16:48:53.191Z,80.35
2017-03-09T16:52:53.098Z,81.4
2017-03-09T16:55:16.627Z,81.02
2017-03-09T16:57:40.218Z,81.3
2017-03-09T16:59:55.352Z,81.4
2017-03-09T17:02:18.846Z,81.78
2017-03-09T17:04:42.352Z,82.98
2017-03-09T17:07:05.893Z,81.78
2017-03-09T17:09:29.411Z,82.79
2017-03-09T17:11:52.930Z,82.93
2017-03-09T17:14:08.039Z,82.98
2017-03-09T17:16:31.602Z,82.98
2017-03-09T17:18:55.221Z,82.79
2017-03-09T17:21:18.772Z,82.7
2017-03-09T17:23:42.223Z,82.93
2017-03-09T17:27:42.007Z,82.74
2017-03-09T17:30:05.590Z,83.27
2017-03-09T17:32:20.719Z,84.13
2017-03-09T17:34:35.823Z,84.7
2017-03-09T17:36:59.344Z,85.18
2017-03-09T17:39:22.864Z,85.71
2017-03-09T17:41:33.090Z,85.28
2017-03-09T17:43:56.636Z,85.18
2017-03-09T17:46:20.150Z,85.09
2017-03-09T17:48:35.267Z,85.42
2017-03-09T17:50:58.765Z,85.38
2017-03-09T17:53:22.304Z,84.61
2017-03-09T17:55:45.800Z,84.52
2017-03-09T17:58:09.323Z,84.85
2017-03-09T18:00:24.432Z,84.13
2017-03-09T18:02:39.524Z,83.75
2017-03-09T18:05:03.027Z,83.17
2017-03-09T18:07:26.585Z,84.03
2017-03-09T18:09:28.314Z,82.98
2017-03-09T18:11:51.751Z,84.38
2017-03-09T18:14:15.283Z,83.94
2017-03-09T18:16:38.792Z,83.08
2017-03-09T18:19:02.313Z,82.98
2017-03-09T18:21:25.820Z,83.37
2017-03-09T18:25:25.569Z,82.98
2017-03-09T18:27:49.094Z,83.46
2017-03-09T18:30:12.609Z,83.17
2017-03-09T18:32:36.116Z,83.56
2017-03-09T18:34:59.624Z,83.23
2017-03-09T18:37:25.167Z,83.46
2017-03-09T18:39:48.747Z,83.23
2017-03-09T18:42:12.310Z,83.42
2017-03-09T18:44:27.472Z,82.98
2017-03-09T18:46:51.038Z,82.94
2017-03-09T18:49:14.497Z,82.41
2017-03-09T18:51:37.977Z,82.51
2017-03-09T18:54:01.544Z,83.13
2017-03-09T18:56:25.128Z,83.33
2017-03-09T18:58:48.693Z,83.61
2017-03-09T19:01:12.258Z,83.23
2017-03-09T19:03:13.987Z,83.13
2017-03-09T19:05:38.407Z,83.13
2017-03-09T19:08:01.970Z,83.13
2017-03-09T19:10:25.747Z,82.75
2017-03-09T19:12:49.315Z,84.28
2017-03-09T19:15:04.382Z,83.04
2017-03-09T19:17:27.860Z,83.04
2017-03-09T19:19:51.350Z,83.42
2017-03-09T19:22:14.852Z,84.19
2017-03-09T19:24:38.381Z,84.09
2017-03-09T19:27:01.815Z,84.66
2017-03-09T19:29:25.301Z,83.8
2017-03-09T19:31:40.339Z,85.19
2017-03-09T19:34:03.762Z,85.38
2017-03-09T19:36:27.271Z,84.81
2017-03-09T19:38:50.746Z,85.77
2017-03-09T19:41:14.287Z,85.86
2017-03-09T19:43:38.366Z,85.48
2017-03-09T19:46:01.828Z,85.58
2017-03-09T19:48:25.409Z,86.05
2017-03-09T19:50:48.866Z,86.53
2017-03-09T19:53:12.282Z,85.67
2017-03-09T19:55:35.755Z,85.77
2017-03-09T19:57:50.764Z,85.19
2017-03-09T20:00:15.242Z,85.58
2017-03-09T20:02:39.031Z,85.29
2017-03-09T20:05:02.699Z,85.63
2017-03-09T20:07:26.100Z,85.77
2017-03-09T20:09:49.539Z,85.82
2017-03-09T20:12:13.280Z,86.2
2017-03-09T20:14:36.768Z,86.58
2017-03-09T20:16:47.128Z,86.2
2017-03-09T20:19:10.639Z,85.82
2017-03-09T20:21:34.140Z,85.82
2017-03-09T20:23:57.678Z,86.2
2017-03-09T20:26:21.028Z,86.68
2017-03-09T20:28:44.879Z,86.96
2017-03-09T20:31:09.799Z,86.58
2017-03-09T20:33:33.490Z,86.39
2017-03-09T20:35:57.143Z,86.68
2017-03-09T20:38:20.624Z,85.91
2017-03-09T20:40:43.991Z,85.91
2017-03-09T20:43:07.470Z,86.77
2017-03-09T20:45:33.285Z,86.87
2017-03-09T20:47:56.767Z,86.49
2017-03-09T20:50:21.338Z,86.3
2017-03-09T20:52:46.077Z,85.72
2017-03-09T20:55:10.521Z,86.49
2017-03-09T20:57:35.170Z,86.96
2017-03-09T20:59:59.331Z,86.39
2017-03-09T21:02:23.278Z,86.63
2017-03-09T21:04:48.415Z,86.44
2017-03-09T21:07:12.299Z,87.02
2017-03-09T21:09:36.094Z,85.72
2017-03-09T21:12:00.299Z,86.73
2017-03-09T21:14:26.035Z,86.54
2017-03-09T21:16:51.080Z,86.1
2017-03-09T21:19:15.245Z,86.25
2017-03-09T21:21:39.346Z,86.35
2017-03-09T21:24:04.929Z,86.35
2017-03-09T21:26:30.936Z,86.35
2017-03-09T21:28:55.543Z,86.44
2017-03-09T21:31:20.073Z,86.25
2017-03-09T21:33:43.869Z,86.06
2017-03-09T21:36:07.936Z,85.87
2017-03-09T21:38:33.043Z,85.77
2017-03-09T21:40:56.599Z,85.77
2017-03-09T21:43:19.866Z,85.77
2017-03-09T21:45:43.723Z,85.58
2017-03-09T21:48:07.838Z,85.49
2017-03-09T21:50:31.895Z,85.39
2017-03-09T21:52:56.782Z,85.3
2017-03-09T21:55:20.256Z,84.25
2017-03-09T21:57:43.523Z,83.48
2017-03-09T22:00:08.756Z,82.86
2017-03-09T22:02:31.568Z,83.24
2017-03-09T22:04:55.014Z,82.67
2017-03-09T22:07:18.622Z,82.63
2017-03-09T22:09:41.938Z,83.01
2017-03-09T22:12:05.316Z,83.2
2017-03-09T22:14:28.631Z,83.01
2017-03-09T22:16:51.966Z,82.91
2017-03-09T22:19:15.370Z,83.11
2017-03-09T22:21:38.763Z,83.01
2017-03-09T22:24:02.196Z,82.91
2017-03-09T22:26:25.698Z,82.63
2017-03-09T22:28:49.034Z,81.67
2017-03-09T22:31:12.512Z,81.67
2017-03-09T22:33:35.989Z,81.67
2017-03-09T22:35:59.443Z,81.67
2017-03-09T22:38:23.944Z,81.38
2017-03-09T22:40:47.659Z,80.62
2017-03-09T22:43:11.392Z,81.1
2017-03-09T22:45:34.931Z,80.19
2017-03-09T22:47:58.367Z,79.38
2017-03-09T22:50:21.725Z,79.67
2017-03-09T22:52:45.169Z,79.67
2017-03-09T22:55:08.617Z,79.38
2017-03-09T22:57:32.255Z,78.91
2017-03-09T22:59:55.460Z,78.81
2017-03-09T23:02:18.949Z,78.62
2017-03-09T23:04:42.277Z,77.86
2017-03-09T23:07:05.750Z,78.05
2017-03-09T23:09:29.233Z,78.23
2017-03-09T23:11:44.185Z,78.05
2017-03-09T23:14:07.656Z,78.23
2017-03-09T23:16:31.111Z,77.95
2017-03-09T23:18:54.589Z,77.38
2017-03-09T23:21:09.565Z,77.47
2017-03-09T23:23:32.911Z,77.09
2017-03-09T23:25:56.381Z,76.52
2017-03-09T23:27:58.072Z,76.62
2017-03-09T23:31:57.679Z,77.15
2017-03-09T23:34:21.143Z,77.28
2017-03-09T23:36:44.595Z,76.14
2017-03-09T23:39:07.962Z,75.95
2017-03-09T23:41:22.930Z,76.39
2017-03-09T23:43:46.294Z,75.95
2017-03-09T23:46:09.757Z,75.28
2017-03-09T23:48:33.223Z,75.47
2017-03-09T23:50:48.205Z,75.37
2017-03-09T23:53:11.568Z,76.23
2017-03-09T23:55:34.925Z,75.18
2017-03-09T23:57:36.592Z,75.09
